Главная страница
METAR-TAF:

METAR-TAF

Аэропорты :

Уральск, Казахстан

широта: 51-15N, долгота: 051-17E, высота над уровнем моря: 36 м

Текущие метеонаблюдения

Эта сводка был подготовлена 37 минут назад, в 19:00 UTC
Ветер 8 Узел от южный-юго-западный
Температура 3°C
Влажность 75%
Давление 1030 hPa
Видимость 10 км и более
Нет облачности ниже 1500 м, и нет кучево-дождевой облачности

METAR: UARR 261900Z 21004MPS CAVOK 03/M01 Q1030 R22/CLRD70 NOSIG RMK QFE769/1025

Время: 00:37 (19:37 UTC)

Прогноз

Эта сводка был подготовлена 2 часа и 37 минут назад, в 17:00 UTC
Прогноз действительный с 26-го 18 UTC до 27-го 03 UTC
Ветер 10 Узел от юго-западный
Видимость 10 км и более
Нет облачности ниже 1500 м, и нет кучево-дождевой облачности

TAF: UARR 261700Z 2618/2703 22005MPS CAVOK

Метеонаблюдения и прогнозы для более 4000 аэропортов (сводки METAR и TAF).

Имеющиеся станции представлены на карте желтыми и красными точками.

Чтобы увидеть название станции, наведите на нее мышь.

Затем щелкните, чтобы увидеть метеонаблюдения и метеопрогнозы.

Управление картой: чтобы увеличить масштаб, щелкните зеленые кнопки с черным крестиком; чтобы уменьшить масштаб, щелкните зеленую кнопку с тире; для просмотра соседних карт щелкайте зеленые стрелки.


METAR-TAF: